createdAt,value
2023-04-29T00:08:27.772Z,15.40
2023-04-29T00:28:27.509Z,23.20
2023-04-29T00:48:27.233Z,15.30
2023-04-29T01:08:26.952Z,16.20
2023-04-29T01:28:26.737Z,10.40
2023-04-29T01:48:26.391Z,20.10
2023-04-29T02:08:26.126Z,19.30
2023-04-29T02:28:25.840Z,12.40
2023-04-29T02:48:25.557Z,12.90
2023-04-29T03:08:25.282Z,15.90
2023-04-29T03:28:24.985Z,18.30
2023-04-29T03:48:24.721Z,17.50
2023-04-29T04:08:24.451Z,18.00
2023-04-29T04:28:24.158Z,19.80
2023-04-29T04:48:23.887Z,23.90
2023-04-29T05:08:23.640Z,20.50
2023-04-29T05:28:23.356Z,25.10
2023-04-29T05:48:23.060Z,23.70
2023-04-29T06:08:22.815Z,23.40
2023-04-29T06:28:22.520Z,23.10
2023-04-29T06:48:22.249Z,15.30
2023-04-29T07:08:22.050Z,13.20
2023-04-29T07:28:21.688Z,13.80
2023-04-29T07:48:21.409Z,11.70
2023-04-29T08:08:21.127Z,11.50
2023-04-29T08:28:20.858Z,11.00
2023-04-29T08:48:20.622Z,9.60
2023-04-29T09:08:20.315Z,9.40
2023-04-29T09:28:20.031Z,11.30
2023-04-29T09:48:19.748Z,8.60
2023-04-29T10:08:19.499Z,8.50
2023-04-29T10:28:19.231Z,7.70
2023-04-29T10:48:18.953Z,8.10
2023-04-29T11:08:18.654Z,5.80
2023-04-29T11:28:18.422Z,5.10
2023-04-29T11:48:18.104Z,5.60
2023-04-29T12:08:17.876Z,5.30
2023-04-29T12:28:17.566Z,4.50
2023-04-29T12:48:26.643Z,3.20
2023-04-29T13:08:17.014Z,4.50
2023-04-29T13:28:16.777Z,4.30
2023-04-29T13:48:50.105Z,2.90
2023-04-29T14:08:16.173Z,4.60
2023-04-29T14:28:15.914Z,3.40
2023-04-29T14:48:15.597Z,2.60
2023-04-29T15:08:15.332Z,1.60
2023-04-29T15:28:15.109Z,2.30
2023-04-29T15:48:14.778Z,3.20
2023-04-29T16:08:14.507Z,2.70
2023-04-29T16:28:14.282Z,4.10
2023-04-29T16:48:13.995Z,4.60
2023-04-29T17:08:13.797Z,4.70
2023-04-29T17:28:13.400Z,3.60
2023-04-29T17:48:13.115Z,4.00
2023-04-29T18:08:12.886Z,5.10
2023-04-29T18:28:23.571Z,1.90
2023-04-29T18:48:12.323Z,1.40
2023-04-29T19:08:11.991Z,1.70
2023-04-29T19:28:11.830Z,2.20
2023-04-29T19:48:11.541Z,1.40
2023-04-29T20:08:11.206Z,2.70
2023-04-29T20:28:10.889Z,2.20
2023-04-29T20:48:10.673Z,1.90
2023-04-29T21:08:10.412Z,1.80
2023-04-29T21:28:10.076Z,2.50
2023-04-29T21:48:09.793Z,3.60
2023-04-29T22:08:09.530Z,3.70
2023-04-29T22:28:09.288Z,1.20
2023-04-29T22:48:08.978Z,1.40
2023-04-29T23:08:08.710Z,3.10
2023-04-29T23:28:08.408Z,3.30
2023-04-29T23:48:08.396Z,4.30
